Terminal Aerodrome Forecast
Issued by NWS Louisville, KY

Home | Current Version | Previous Version | Text Only | Print | Product List | Glossary On
Versions: 1 2 3 4 5 6 7 8 9 10 11 12 13 14 15 16 17
000
FTUS43 KLMK 161001 AAB
TAFLEX
TAF AMD
KLEX 161001Z 1610/1706 24007KT 3SM BR SCT008
     FM161200 29008KT P6SM BKN015
     FM161500 31008KT P6SM FEW200
     FM170000 06006KT P6SM FEW150=

USA.gov is the U.S. government's official web portal to all federal, state and local government web resources and services.